Time;durP1;ratioP1;P1;durP2;ratioP2;P2;SDS_P1;SDS_P2;PMS_P1;PMS_P2;Temp;Humidity;BMP_temperature;BMP_pressure;BME280_temperature;BME280_humidity;BME280_pressure;Samples;Min_cycle;Max_cycle;Signal;HPM_P1;HPM_P2
2021/07/01 00:02:16;;;;;;;5.10;2.93;;;;;;;19.25;63.69;99762.53;127941;1098;22733;-79
2021/07/01 00:04:49;;;;;;;2.68;2.25;;;;;;;19.21;63.75;99764.88;127940;1098;22400;-79
2021/07/01 00:07:19;;;;;;;4.28;3.08;;;;;;;19.21;63.99;99767.55;127976;1098;22434;-78
2021/07/01 00:09:49;;;;;;;3.00;2.25;;;;;;;19.21;64.46;99766.75;128036;1098;22420;-80
2021/07/01 00:12:21;;;;;;;4.60;2.50;;;;;;;19.19;63.83;99772.35;127941;1098;22378;-79
2021/07/01 00:14:51;;;;;;;3.60;2.30;;;;;;;19.17;64.13;99766.41;128178;1098;23046;-80
2021/07/01 00:17:21;;;;;;;3.55;2.38;;;;;;;19.16;63.93;99771.98;128026;1098;22473;-80
2021/07/01 00:19:51;;;;;;;4.00;2.35;;;;;;;19.15;64.25;99759.66;127933;1098;22407;-80
2021/07/01 00:22:21;;;;;;;3.30;2.50;;;;;;;19.11;64.42;99758.52;128001;1098;24527;-79
2021/07/01 00:24:51;;;;;;;3.23;2.60;;;;;;;19.08;64.20;99757.13;127970;1099;25007;-80
2021/07/01 00:27:21;;;;;;;5.93;2.63;;;;;;;19.05;64.21;99755.73;127940;1098;22397;-79
2021/07/01 00:29:51;;;;;;;3.50;2.60;;;;;;;19.03;64.31;99757.04;128010;1098;22389;-80
2021/07/01 00:32:21;;;;;;;4.00;3.13;;;;;;;19.00;64.17;99760.19;127980;1098;22459;-79
2021/07/01 00:34:51;;;;;;;5.48;3.65;;;;;;;18.84;64.17;99766.28;127911;1098;24265;-79
2021/07/01 00:37:21;;;;;;;5.33;3.45;;;;;;;18.63;64.72;99757.80;127941;1098;24531;-80
2021/07/01 00:39:51;;;;;;;4.70;3.85;;;;;;;18.46;64.74;99759.53;127607;1101;23174;-80
2021/07/01 00:42:22;;;;;;;5.70;4.17;;;;;;;18.33;65.65;99756.08;127500;1101;22718;-80
2021/07/01 00:44:55;;;;;;;4.20;3.75;;;;;;;18.25;65.82;99752.92;127646;1101;22398;-80
2021/07/01 00:47:25;;;;;;;6.35;4.33;;;;;;;18.21;66.03;99751.77;127484;1101;23046;-80
2021/07/01 00:50:06;;;;;;;4.70;4.00;;;;;;;18.14;66.43;99765.25;127789;1101;22836;-79
2021/07/01 00:52:40;;;;;;;5.18;4.23;;;;;;;18.13;66.82;99762.78;127551;1101;22414;-78
2021/07/01 00:55:12;;;;;;;5.33;4.03;;;;;;;18.07;66.83;99751.19;127515;1101;22396;-79
2021/07/01 00:57:47;;;;;;;5.75;4.15;;;;;;;18.06;67.25;99752.20;127633;1099;22401;-80
2021/07/01 01:02:51;;;;;;;5.00;3.98;;;;;;;18.07;67.50;99743.98;127987;1098;24550;-79
2021/07/01 01:05:30;;;;;;;4.75;3.85;;;;;;;18.07;67.54;99745.84;128060;1098;22395;-79
2021/07/01 01:08:06;;;;;;;5.10;3.95;;;;;;;18.04;67.69;99741.77;128037;1098;22399;-79
2021/07/01 01:10:46;;;;;;;6.63;4.10;;;;;;;18.01;67.51;99728.05;128032;1098;22383;-80
2021/07/01 01:13:38;;;;;;;4.10;3.70;;;;;;;17.98;67.72;99734.67;127955;1098;22388;-79
2021/07/01 01:16:25;;;;;;;4.47;3.70;;;;;;;17.94;67.79;99736.18;127753;1101;22398;-80
2021/07/01 01:19:04;;;;;;;4.18;3.53;;;;;;;17.93;68.21;99729.22;127662;1101;22753;-80
2021/07/01 01:21:37;;;;;;;5.70;3.80;;;;;;;17.94;68.49;99724.68;127684;1101;24570;-79
2021/07/01 01:24:15;;;;;;;6.30;3.70;;;;;;;17.92;68.08;99718.74;127672;1101;22486;-79
2021/07/01 01:26:46;;;;;;;5.73;3.75;;;;;;;17.91;68.37;99719.80;127898;1101;24540;-80
2021/07/01 01:29:21;;;;;;;5.88;3.83;;;;;;;17.91;68.39;99714.45;127974;1101;24295;-80
2021/07/01 01:31:59;;;;;;;3.63;3.33;;;;;;;17.89;68.40;99709.33;127969;1101;22400;-80
2021/07/01 01:34:31;;;;;;;5.23;3.75;;;;;;;17.90;68.80;99705.63;128031;1098;24562;-80
2021/07/01 01:37:09;;;;;;;5.10;4.20;;;;;;;17.88;68.43;99700.50;128277;1098;24288;-80
2021/07/01 01:39:55;;;;;;;7.68;3.80;;;;;;;17.85;68.67;99708.16;128018;1098;22443;-79
2021/07/01 01:42:33;;;;;;;3.98;3.30;;;;;;;17.86;69.03;99710.63;128245;1098;25008;-81
2021/07/01 01:45:14;;;;;;;4.93;3.93;;;;;;;17.86;68.97;99707.95;128103;1098;24553;-79
2021/07/01 01:47:51;;;;;;;5.30;3.53;;;;;;;17.87;68.71;99704.22;128003;1098;25149;-79
2021/07/01 01:50:34;;;;;;;4.10;3.70;;;;;;;17.88;68.82;99707.70;128021;1098;22644;-79
2021/07/01 01:53:13;;;;;;;4.43;3.55;;;;;;;17.88;68.60;99702.36;127995;1098;22388;-79
2021/07/01 01:55:48;;;;;;;5.38;4.05;;;;;;;17.86;68.64;99697.27;128021;1098;23440;-79
2021/07/01 01:58:20;;;;;;;5.25;3.60;;;;;;;17.85;68.70;99700.15;127687;1101;24585;-80
2021/07/01 02:01:11;;;;;;;4.98;4.20;;;;;;;17.81;68.29;99699.80;127964;1101;22414;-81
2021/07/01 02:03:41;;;;;;;4.05;3.50;;;;;;;17.80;68.71;99697.38;127750;1101;22405;-80
2021/07/01 02:06:28;;;;;;;5.18;3.58;;;;;;;17.77;68.82;99698.64;127771;1101;22401;-81
2021/07/01 02:09:02;;;;;;;6.53;4.65;;;;;;;17.76;68.68;99705.04;127628;1101;23189;-80
2021/07/01 02:11:42;;;;;;;4.75;4.35;;;;;;;17.73;69.03;99713.48;127875;1101;23029;-80
2021/07/01 02:14:22;;;;;;;4.28;3.90;;;;;;;17.71;68.90;99707.54;127655;1101;22407;-79
2021/07/01 02:17:14;;;;;;;4.80;4.30;;;;;;;17.68;68.92;99710.67;127644;1101;22397;-80
2021/07/01 02:19:47;;;;;;;6.55;3.85;;;;;;;17.69;68.94;99708.80;127909;1101;22411;-81
2021/07/01 02:22:20;;;;;;;6.43;4.20;;;;;;;17.68;68.87;99716.01;127838;1098;24391;-79
2021/07/01 02:24:53;;;;;;;5.53;4.77;;;;;;;17.68;69.22;99716.01;128313;1098;22397;-79
2021/07/01 02:27:24;;;;;;;;;;;;;;;17.63;69.30;99716.71;128232;1098;22408;-80
2021/07/01 02:29:58;;;;;;;5.00;4.53;;;;;;;17.59;69.19;99725.39;128025;1098;22296;-79
2021/07/01 02:32:38;;;;;;;7.05;4.40;;;;;;;17.53;69.02;99731.67;127978;1098;22395;-79
2021/07/01 02:35:11;;;;;;;7.60;4.93;;;;;;;17.45;68.85;99729.31;127912;1098;25099;-80
2021/07/01 02:38:00;;;;;;;7.30;5.10;;;;;;;17.37;69.39;99727.78;128219;1098;23214;-79
2021/07/01 02:40:35;;;;;;;6.83;6.23;;;;;;;17.36;69.72;99726.14;128008;1098;22375;-78
2021/07/01 02:43:08;;;;;;;6.13;4.78;;;;;;;17.36;69.72;99729.65;127982;1098;23161;-78
2021/07/01 02:45:39;;;;;;;7.83;5.18;;;;;;;17.37;69.80;99738.47;127968;1098;22398;-79
2021/07/01 02:48:17;;;;;;;9.53;5.13;;;;;;;17.36;69.58;99732.31;128014;1098;22392;-79
2021/07/01 02:50:51;;;;;;;6.50;5.37;;;;;;;17.37;69.65;99738.47;128233;1098;25794;-79
2021/07/01 02:53:24;;;;;;;8.68;4.68;;;;;;;17.35;69.72;99735.20;127971;1098;24999;-80
2021/07/01 02:55:58;;;;;;;6.43;4.50;;;;;;;17.33;69.89;99746.12;127890;1101;24228;-78
2021/07/01 02:58:28;;;;;;;5.05;4.58;;;;;;;17.34;70.17;99744.26;127852;1101;22412;-79
2021/07/01 03:01:36;;;;;;;7.20;4.40;;;;;;;17.32;70.35;99752.47;127975;1101;22393;-79
2021/07/01 03:04:23;;;;;;;7.75;4.23;;;;;;;17.34;70.59;99757.61;127896;1101;22674;-78
2021/07/01 03:06:53;;;;;;;5.90;4.33;;;;;;;17.35;70.27;99762.70;127628;1101;22409;-79
2021/07/01 03:09:24;;;;;;;6.88;4.63;;;;;;;17.38;70.68;99764.92;127993;1101;22407;-80
2021/07/01 03:11:54;;;;;;;6.30;4.08;;;;;;;17.41;70.47;99753.80;127764;1101;22391;-80
2021/07/01 03:14:24;;;;;;;5.95;3.93;;;;;;;17.45;70.35;99748.81;127849;1098;22826;-79
2021/07/01 03:16:57;;;;;;;6.10;4.35;;;;;;;17.49;70.74;99749.98;128085;1098;23174;-79
2021/07/01 03:19:27;;;;;;;4.73;4.20;;;;;;;17.55;70.70;99750.94;128056;1098;22393;-80
2021/07/01 03:22:16;;;;;;;6.38;3.93;;;;;;;17.54;70.05;99755.47;128070;1098;22482;-80
2021/07/01 03:24:46;;;;;;;9.25;4.03;;;;;;;17.57;70.42;99754.20;128001;1098;22395;-79
2021/07/01 03:27:17;;;;;;;6.48;4.55;;;;;;;17.57;70.28;99764.88;128046;1098;22395;-79
2021/07/01 03:29:48;;;;;;;5.10;3.50;;;;;;;17.55;70.05;99765.09;128295;1098;23173;-80
2021/07/01 03:32:21;;;;;;;5.33;4.07;;;;;;;17.57;70.18;99763.02;128254;1098;22399;-80
2021/07/01 03:35:18;;;;;;;7.35;4.10;;;;;;;17.60;70.20;99759.09;128324;1098;23321;-79
2021/07/01 03:38:10;;;;;;;5.65;3.90;;;;;;;17.60;70.27;99767.10;128047;1098;22396;-80
2021/07/01 03:41:03;;;;;;;6.90;4.13;;;;;;;17.61;70.44;99760.70;127982;1098;24236;-79
2021/07/01 03:43:41;;;;;;;4.50;4.10;;;;;;;17.65;70.27;99768.02;128025;1098;22415;-79
2021/07/01 03:46:14;;;;;;;4.68;4.13;;;;;;;17.71;70.54;99768.17;128051;1098;22410;-80
2021/07/01 03:48:46;;;;;;;5.60;4.10;;;;;;;17.74;70.00;99773.86;128047;1098;22399;-79
2021/07/01 03:51:34;;;;;;;7.60;4.20;;;;;;;17.76;70.02;99777.17;128000;1098;22402;-79
2021/07/01 03:54:30;;;;;;;6.15;4.40;;;;;;;17.80;70.28;99775.66;127946;1098;22465;-80
2021/07/01 03:57:02;;;;;;;7.10;4.35;;;;;;;17.87;70.10;99784.38;128005;1098;22419;-80
2021/07/01 03:59:46;;;;;;;6.58;4.03;;;;;;;17.92;69.93;99780.20;128227;1098;22407;-79
2021/07/01 04:02:34;;;;;;;4.95;3.88;;;;;;;17.95;69.81;99787.77;127996;1098;22848;-79
2021/07/01 04:05:10;;;;;;;4.88;3.48;;;;;;;17.98;69.63;99792.65;128070;1098;22843;-81
2021/07/01 04:07:43;;;;;;;6.63;3.70;;;;;;;18.04;69.73;99792.55;127992;1098;22396;-78
2021/07/01 04:10:18;;;;;;;7.88;4.00;;;;;;;18.09;69.36;99794.52;127972;1098;22408;-79
2021/07/01 04:12:53;;;;;;;4.13;3.55;;;;;;;18.15;69.44;99795.45;127995;1098;22681;-79
2021/07/01 04:15:39;;;;;;;6.15;3.65;;;;;;;18.18;69.13;99790.47;127950;1098;22705;-79
2021/07/01 04:18:24;;;;;;;6.90;4.33;;;;;;;18.21;68.77;99794.55;127956;1098;25056;-79
2021/07/01 04:21:14;;;;;;;7.05;4.05;;;;;;;18.29;69.15;99805.72;127728;1098;24269;-80
2021/07/01 04:24:02;;;;;;;5.20;4.03;;;;;;;18.36;68.84;99805.61;128000;1098;25069;-80
2021/07/01 04:27:02;;;;;;;6.10;4.00;;;;;;;18.42;68.83;99793.95;127803;1101;22977;-78
2021/07/01 04:29:39;;;;;;;6.40;3.23;;;;;;;18.44;68.17;99799.90;127560;1101;22386;-80
2021/07/01 04:32:09;;;;;;;8.30;4.50;;;;;;;18.42;68.24;99798.49;127673;1101;22744;-78
2021/07/01 04:34:39;;;;;;;7.48;3.95;;;;;;;18.42;68.13;99793.95;127579;1101;22494;-79
2021/07/01 04:37:09;;;;;;;5.85;4.03;;;;;;;18.44;68.01;99802.57;127563;1101;23132;-79
2021/07/01 04:39:47;;;;;;;7.13;4.18;;;;;;;18.47;68.49;99795.95;127862;1101;24543;-80
2021/07/01 04:42:27;;;;;;;6.65;4.03;;;;;;;18.53;68.45;99795.02;127635;1101;23151;-79
2021/07/01 04:44:57;;;;;;;7.88;3.98;;;;;;;18.60;68.13;99793.04;127637;1101;22844;-79
2021/07/01 04:47:30;;;;;;;8.40;4.23;;;;;;;18.64;68.41;99794.19;127605;1100;22487;-80
2021/07/01 04:50:07;;;;;;;5.85;3.90;;;;;;;18.70;67.67;99795.94;127877;1101;22554;-81
2021/07/01 04:52:57;;;;;;;8.50;4.20;;;;;;;18.74;68.06;99781.06;127903;1100;25171;-81
2021/07/01 04:55:45;;;;;;;6.20;4.00;;;;;;;18.83;67.48;99791.39;127540;1105;22387;-80
2021/07/01 04:58:38;;;;;;;6.80;3.93;;;;;;;18.84;67.46;99782.33;127450;1102;22398;-81
2021/07/01 05:01:27;;;;;;;7.20;3.20;;;;;;;18.75;67.31;99781.88;127810;1104;22404;-80
2021/07/01 05:04:16;;;;;;;6.88;3.40;;;;;;;18.73;67.61;99790.15;127742;1101;22411;-80
2021/07/01 05:06:49;;;;;;;5.30;3.30;;;;;;;18.78;67.76;99789.43;127881;1101;22480;-79
2021/07/01 05:09:19;;;;;;;7.40;3.88;;;;;;;18.83;67.06;99791.39;127670;1101;22931;-81
2021/07/01 05:11:49;;;;;;;7.68;4.33;;;;;;;18.81;67.09;99794.31;127899;1101;24285;-79
2021/07/01 05:14:19;;;;;;;6.68;4.13;;;;;;;18.85;67.04;99800.81;127825;1098;22500;-79
2021/07/01 05:16:55;;;;;;;4.90;3.78;;;;;;;18.83;67.46;99794.91;128250;1098;22490;-80
2021/07/01 05:19:26;;;;;;;4.78;3.03;;;;;;;18.77;66.91;99799.33;127847;1101;22404;-80
2021/07/01 05:22:04;;;;;;;6.45;3.23;;;;;;;18.78;67.45;99798.27;127813;1101;22422;-80
2021/07/01 05:24:52;;;;;;;5.03;3.48;;;;;;;18.83;67.37;99802.09;127789;1101;23255;-82
2021/07/01 05:27:57;;;;;;;6.13;3.93;;;;;;;18.83;67.08;99802.94;127194;1106;22520;-84
2021/07/01 05:30:50;;;;;;;7.43;3.83;;;;;;;18.86;67.37;99802.47;126851;1108;22477;-83
2021/07/01 05:33:39;;;;;;;4.25;3.85;;;;;;;18.86;67.39;99809.66;127000;1108;22427;-81
2021/07/01 05:36:10;;;;;;;5.60;3.70;;;;;;;18.89;67.38;99810.00;127172;1107;22443;-84
2021/07/01 05:38:42;;;;;;;6.30;4.15;;;;;;;18.97;67.38;99809.64;127154;1105;22418;-81
2021/07/01 05:41:14;;;;;;;4.70;3.90;;;;;;;19.02;67.02;99823.12;126969;1108;22426;-82
2021/07/01 05:43:44;;;;;;;4.45;3.80;;;;;;;19.03;66.76;99824.77;127025;1108;24665;-84
2021/07/01 05:46:48;;;;;;;17.30;5.43;;;;;;;19.03;66.95;99823.96;127412;1105;22418;-83
2021/07/01 05:49:18;;;;;;;8.70;4.03;;;;;;;19.08;66.98;99823.23;127209;1105;22526;-83
2021/07/01 05:51:51;;;;;;;10.83;4.18;;;;;;;19.13;66.94;99812.65;127186;1108;23345;-82
2021/07/01 05:57:00;;;;;;;8.50;4.80;;;;;;;19.29;66.60;99819.91;127134;1106;24945;-80
2021/07/01 05:59:37;;;;;;;8.33;4.53;;;;;;;19.42;66.66;99824.18;127027;1105;22591;-80
2021/07/01 06:02:07;;;;;;;6.30;3.73;;;;;;;19.51;66.05;99836.95;127009;1108;24626;-79
2021/07/01 06:04:39;;;;;;;5.23;3.85;;;;;;;19.62;66.09;99834.47;126762;1105;22883;-77
2021/07/01 06:07:28;;;;;;;6.95;4.18;;;;;;;19.72;66.00;99840.85;127218;1105;23455;-78
2021/07/01 06:10:05;;;;;;;7.68;4.13;;;;;;;19.87;65.57;99840.33;127565;1104;25109;-78
2021/07/01 06:12:35;;;;;;;5.35;3.83;;;;;;;20.00;65.18;99847.26;127477;1105;22427;-78
2021/07/01 06:15:06;;;;;;;;;;;;;;;20.07;64.79;99847.91;127119;1105;22407;-78
2021/07/01 06:17:37;;;;;;;5.50;4.50;;;;;;;20.11;64.50;99838.32;127587;1101;21276;-78
2021/07/01 06:20:10;;;;;;;5.88;3.63;;;;;;;20.27;64.47;99841.27;127732;1101;22439;-78
2021/07/01 06:22:41;;;;;;;6.10;3.73;;;;;;;20.52;64.37;99838.18;128198;1101;22503;-78
2021/07/01 06:25:12;;;;;;;5.88;3.23;;;;;;;21.04;64.69;99841.33;128186;1101;22667;-78
2021/07/01 06:27:42;;;;;;;8.18;3.60;;;;;;;21.72;63.56;99828.42;127745;1105;22443;-78
2021/07/01 06:30:20;;;;;;;6.20;3.78;;;;;;;22.37;61.70;99823.91;127724;1102;22266;-81
2021/07/01 06:32:58;;;;;;;4.88;3.75;;;;;;;23.03;59.91;99817.32;127833;1102;22403;-79
2021/07/01 06:35:28;;;;;;;7.48;3.13;;;;;;;23.61;58.17;99812.63;127844;1101;22298;-80
2021/07/01 06:38:22;;;;;;;5.33;2.28;;;;;;;24.21;56.55;99812.97;127496;1105;23082;-81
2021/07/01 06:41:14;;;;;;;4.10;1.80;;;;;;;24.76;53.94;99814.80;127773;1104;23760;-80
2021/07/01 06:44:07;;;;;;;4.88;2.15;;;;;;;25.15;52.22;99827.64;127737;1104;22394;-81
2021/07/01 06:46:58;;;;;;;5.38;1.90;;;;;;;25.52;51.19;99829.08;127746;1101;22407;-80
2021/07/01 06:49:48;;;;;;;;;;;;;;;25.78;49.77;99838.66;127737;1101;22420;-81
2021/07/01 06:52:44;;;;;;;5.73;2.53;;;;;;;26.05;50.00;99827.39;128005;1101;22996;-80
2021/07/01 06:55:34;;;;;;;7.38;4.60;;;;;;;26.39;48.34;99833.87;127765;1098;22409;-81
2021/07/01 06:58:17;;;;;;;4.00;1.88;;;;;;;26.64;47.73;99833.66;128271;1098;22394;-82
2021/07/01 07:00:49;;;;;;;3.55;1.70;;;;;;;26.95;46.63;99839.53;128182;1098;22677;-81
2021/07/01 07:03:24;;;;;;;4.73;2.05;;;;;;;27.23;45.47;99841.70;128203;1098;24550;-80
2021/07/01 07:05:57;;;;;;;3.60;1.68;;;;;;;27.37;45.09;99840.69;128213;1098;22391;-80
2021/07/01 07:08:30;;;;;;;3.70;1.23;;;;;;;27.55;44.03;99833.65;128298;1098;22828;-82
2021/07/01 07:11:02;;;;;;;2.68;1.48;;;;;;;27.83;43.41;99847.41;128253;1098;22345;-82
2021/07/01 07:13:31;;;;;;;;;;;;;;;28.02;43.25;99850.88;128323;1098;22456;-76
2021/07/01 07:16:07;;;;;;;2.65;1.30;;;;;;;28.12;42.77;99844.48;128012;1098;22925;-80
2021/07/01 07:18:39;;;;;;;4.10;1.70;;;;;;;28.13;42.13;99838.77;127938;1098;22369;-82
2021/07/01 07:21:19;;;;;;;8.03;2.03;;;;;;;28.12;41.57;99845.31;128328;1100;23239;-77
2021/07/01 07:23:55;;;;;;;2.93;2.00;;;;;;;28.08;41.62;99844.27;127667;1101;22472;-77
2021/07/01 07:26:26;;;;;;;1.60;1.20;;;;;;;28.11;41.46;99832.02;127998;1101;24531;-78
2021/07/01 07:28:57;;;;;;;4.60;1.83;;;;;;;28.24;40.35;99830.45;127984;1101;22401;-78
2021/07/01 07:31:29;;;;;;;3.18;1.48;;;;;;;28.05;40.45;99839.43;128112;1100;25800;-76
2021/07/01 07:34:06;;;;;;;4.80;2.05;;;;;;;27.80;40.25;99837.14;128242;1101;22390;-77
2021/07/01 07:36:36;;;;;;;7.80;1.65;;;;;;;27.45;41.14;99836.50;128169;1101;22484;-77
2021/07/01 07:39:07;;;;;;;2.47;1.47;;;;;;;27.33;41.50;99831.52;128083;1098;22436;-78
2021/07/01 07:41:37;;;;;;;;;;;;;;;27.24;41.13;99835.98;128306;1098;23336;-76
2021/07/01 07:44:07;;;;;;;3.95;1.20;;;;;;;27.18;41.65;99839.84;128253;1098;23145;-77
2021/07/01 07:46:39;;;;;;;7.13;1.27;;;;;;;27.30;41.15;99842.95;128007;1098;23153;-76
2021/07/01 07:49:09;;;;;;;5.13;1.75;;;;;;;27.60;41.04;99839.02;127990;1098;23163;-76
2021/07/01 07:51:48;;;;;;;3.53;1.10;;;;;;;27.91;40.31;99830.44;128279;1098;22401;-76
2021/07/01 07:54:24;;;;;;;3.93;1.55;;;;;;;27.96;39.79;99829.54;128089;1098;22487;-76
2021/07/01 07:56:57;;;;;;;5.25;1.98;;;;;;;27.89;39.78;99830.75;128260;1096;22484;-76
2021/07/01 07:59:29;;;;;;;5.93;1.33;;;;;;;27.69;39.70;99839.97;128031;1098;22404;-77
2021/07/01 08:02:04;;;;;;;3.65;1.30;;;;;;;27.68;40.10;99845.68;128058;1098;22382;-77
2021/07/01 08:04:35;;;;;;;4.03;1.68;;;;;;;27.94;39.72;99843.42;128031;1098;24612;-76
2021/07/01 08:07:05;;;;;;;5.25;1.68;;;;;;;28.04;39.39;99843.26;128018;1098;22372;-77
2021/07/01 08:09:36;;;;;;;2.40;1.23;;;;;;;27.99;38.83;99832.50;128411;1098;22369;-76
2021/07/01 08:12:09;;;;;;;4.78;2.15;;;;;;;27.73;39.06;99832.05;128269;1098;23164;-76
2021/07/01 08:14:42;;;;;;;2.35;1.05;;;;;;;27.43;39.61;99836.01;128276;1098;24624;-77
2021/07/01 08:17:14;;;;;;;6.20;2.20;;;;;;;27.07;40.29;99839.14;128201;1101;22510;-77
2021/07/01 08:19:46;;;;;;;2.70;1.53;;;;;;;26.68;40.43;99829.27;127805;1101;22403;-77
2021/07/01 08:22:18;;;;;;;4.40;2.28;;;;;;;26.44;40.92;99823.80;128127;1101;22411;-77
2021/07/01 08:24:50;;;;;;;3.45;2.85;;;;;;;26.22;41.58;99832.39;128064;1101;22406;-78
2021/07/01 08:27:22;;;;;;;3.13;2.38;;;;;;;26.02;41.86;99827.98;128283;1101;22574;-78
2021/07/01 08:29:52;;;;;;;3.78;1.60;;;;;;;25.91;41.97;99826.42;128224;1101;22434;-76
2021/07/01 08:32:23;;;;;;;5.23;1.63;;;;;;;25.79;42.11;99828.64;128005;1101;22382;-77
2021/07/01 08:34:56;;;;;;;3.38;1.38;;;;;;;25.71;42.72;99832.75;128013;1098;22407;-78
2021/07/01 08:37:26;;;;;;;4.93;1.43;;;;;;;26.08;43.06;99820.61;128266;1098;22433;-77
2021/07/01 08:40:03;;;;;;;2.10;1.60;;;;;;;26.50;42.17;99819.98;128001;1098;24257;-78
2021/07/01 08:42:36;;;;;;;6.68;1.43;;;;;;;26.97;41.95;99820.30;128320;1098;22416;-77
2021/07/01 08:45:10;;;;;;;2.23;1.35;;;;;;;27.41;40.80;99820.02;128016;1098;22393;-75
2021/07/01 08:47:43;;;;;;;4.85;1.88;;;;;;;27.71;40.04;99812.53;127942;1099;23015;-77
2021/07/01 08:50:17;;;;;;;5.30;1.50;;;;;;;27.98;39.42;99811.06;127638;1101;22388;-76
2021/07/01 08:53:18;;;;;;;4.50;1.48;;;;;;;28.37;39.00;99819.61;128249;1101;22683;-78
2021/07/01 08:55:51;;;;;;;;;;;;;;;28.70;38.26;99818.79;127963;1101;25210;-76
2021/07/01 08:58:23;;;;;;;3.83;1.10;;;;;;;28.91;38.17;99828.14;127702;1100;21272;-77
2021/07/01 09:00:54;;;;;;;6.30;1.80;;;;;;;29.03;37.64;99836.63;127610;1101;22387;-78
2021/07/01 09:03:31;;;;;;;4.00;1.53;;;;;;;29.04;37.66;99830.08;127734;1101;22414;-78
2021/07/01 09:06:48;;;;;;;;;;;;;;;;;;;;;
2021/07/01 09:10:36;;;;;;;1.45;0.83;;;;;;;29.57;36.77;99820.52;127852;1101;25008;-77
2021/07/01 09:13:52;;;;;;;4.40;1.05;;;;;;;29.80;35.82;99826.81;127764;1101;22398;-78
2021/07/01 09:16:58;;;;;;;7.10;1.73;;;;;;;29.92;35.36;99828.97;127768;1101;23064;-78
2021/07/01 09:20:18;;;;;;;;;;;;;;;;;;;;;
2021/07/01 09:23:23;;;;;;;;;;;;;;;;;;;;;
2021/07/01 09:26:34;;;;;;;17.08;2.40;;;;;;;29.95;34.79;99840.05;127629;1104;22423;-77
2021/07/01 09:29:26;;;;;;;9.68;1.63;;;;;;;30.23;35.06;99839.96;127232;1105;22670;-77
2021/07/01 09:31:57;;;;;;;1.95;1.05;;;;;;;30.47;34.05;99845.86;127650;1104;24540;-78
2021/07/01 09:34:29;;;;;;;5.35;0.95;;;;;;;30.60;33.67;99837.91;127807;1103;22478;-77
2021/07/01 09:37:02;;;;;;;5.63;3.30;;;;;;;30.36;32.82;99855.42;127190;1101;23322;-77
2021/07/01 09:39:32;;;;;;;4.38;1.20;;;;;;;29.69;33.64;99847.20;127896;1101;22281;-78
2021/07/01 09:42:05;;;;;;;2.98;1.25;;;;;;;29.36;34.65;99843.83;127940;1101;22476;-76
2021/07/01 09:44:37;;;;;;;3.90;1.00;;;;;;;29.13;34.55;99842.98;128046;1101;22404;-77
2021/07/01 09:47:10;;;;;;;2.23;1.13;;;;;;;28.95;35.13;99845.45;128173;1101;22400;-77
2021/07/01 09:49:43;;;;;;;3.23;1.07;;;;;;;28.83;35.61;99850.61;128153;1101;22370;-77
2021/07/01 09:52:15;;;;;;;6.00;1.28;;;;;;;28.66;35.65;99853.91;127991;1101;23254;-77
2021/07/01 09:54:49;;;;;;;3.35;2.30;;;;;;;28.24;35.30;99857.61;127680;1101;22388;-78
2021/07/01 09:57:29;;;;;;;3.93;1.18;;;;;;;27.89;36.12;99859.77;127968;1098;25020;-78
2021/07/01 10:00:09;;;;;;;2.78;1.00;;;;;;;27.73;36.95;99856.47;128050;1101;22453;-77
2021/07/01 10:02:43;;;;;;;2.75;1.48;;;;;;;27.61;37.20;99846.05;127719;1101;22586;-77
2021/07/01 10:05:28;;;;;;;2.95;1.20;;;;;;;27.45;36.65;99848.16;128231;1101;22485;-78
2021/07/01 10:07:58;;;;;;;6.25;1.45;;;;;;;27.20;37.33;99856.64;128229;1099;22558;-78
2021/07/01 10:10:28;;;;;;;2.78;1.58;;;;;;;27.05;37.66;99851.36;127860;1100;22399;-77
2021/07/01 10:12:59;;;;;;;7.00;1.70;;;;;;;27.00;37.70;99857.66;127917;1101;22413;-77
2021/07/01 10:15:32;;;;;;;3.33;1.33;;;;;;;26.90;37.75;99852.36;127634;1101;24298;-77
2021/07/01 10:18:12;;;;;;;5.50;2.00;;;;;;;26.78;38.11;99849.23;127997;1098;24544;-78
2021/07/01 10:20:58;;;;;;;7.98;1.48;;;;;;;26.73;38.51;99847.40;128007;1098;22500;-77
2021/07/01 10:23:37;;;;;;;4.00;1.37;;;;;;;26.67;38.45;99854.76;128010;1098;24549;-79
2021/07/01 10:26:23;;;;;;;2.60;1.20;;;;;;;26.64;38.60;99852.63;127962;1098;23282;-78
2021/07/01 10:28:58;;;;;;;4.53;1.28;;;;;;;26.72;38.97;99852.02;128027;1098;22755;-77
2021/07/01 10:31:55;;;;;;;2.45;0.93;;;;;;;26.76;38.63;99849.53;128035;1098;25843;-78
2021/07/01 10:34:29;;;;;;;3.05;1.13;;;;;;;26.70;39.30;99850.68;128006;1098;22482;-77
2021/07/01 10:37:22;;;;;;;8.05;1.78;;;;;;;26.62;38.50;99841.25;127940;1098;22402;-77
2021/07/01 10:39:55;;;;;;;4.73;1.00;;;;;;;26.54;39.00;99841.89;127995;1098;22516;-76
2021/07/01 10:42:25;;;;;;;6.90;1.48;;;;;;;26.50;39.54;99830.83;127982;1098;22409;-77
2021/07/01 10:45:12;;;;;;;3.28;0.75;;;;;;;26.53;39.33;99834.06;128038;1098;22513;-76
2021/07/01 10:47:43;;;;;;;3.20;1.30;;;;;;;26.69;39.46;99835.50;128012;1098;22838;-77
2021/07/01 10:50:22;;;;;;;2.75;0.80;;;;;;;26.74;39.35;99824.61;127978;1098;23035;-76
2021/07/01 10:52:52;;;;;;;8.65;1.60;;;;;;;26.84;39.48;99832.63;127965;1098;22395;-77
2021/07/01 10:55:23;;;;;;;4.10;1.10;;;;;;;26.88;39.17;99822.82;128005;1098;22403;-77
2021/07/01 10:58:19;;;;;;;3.98;1.43;;;;;;;26.94;38.87;99824.38;128000;1096;22398;-77
2021/07/01 11:01:33;;;;;;;4.85;2.00;;;;;;;26.98;38.90;99825.41;128022;1098;22425;-77
2021/07/01 11:04:11;;;;;;;2.55;1.35;;;;;;;26.93;39.05;99819.27;128002;1098;24556;-77
2021/07/01 11:06:44;;;;;;;3.35;1.10;;;;;;;26.85;39.05;99817.97;127990;1098;22403;-77
2021/07/01 11:09:15;;;;;;;4.47;1.17;;;;;;;26.62;38.41;99825.00;128036;1098;22411;-77
2021/07/01 11:11:45;;;;;;;;;;;;;;;26.40;38.02;99832.80;127951;1098;22429;-77
2021/07/01 11:14:48;;;;;;;1.88;1.28;;;;;;;26.14;38.35;99824.89;127943;1098;21277;-77
2021/07/01 11:17:39;;;;;;;2.18;0.90;;;;;;;25.93;38.47;99834.28;128056;1098;22442;-76
2021/07/01 11:20:18;;;;;;;6.38;1.48;;;;;;;25.81;38.79;99843.54;128099;1098;22417;-76
2021/07/01 11:22:54;;;;;;;3.65;0.85;;;;;;;25.66;39.03;99840.92;128035;1098;24637;-76
2021/07/01 11:25:38;;;;;;;4.23;1.20;;;;;;;25.53;39.54;99842.34;128028;1098;22727;-77
2021/07/01 11:28:31;;;;;;;4.43;1.20;;;;;;;25.34;40.43;99835.95;127988;1098;22471;-75
2021/07/01 11:31:02;;;;;;;4.33;1.13;;;;;;;25.13;40.47;99835.24;128026;1098;22408;-77
2021/07/01 11:33:32;;;;;;;2.95;1.33;;;;;;;24.96;40.93;99838.25;128019;1098;22400;-77
2021/07/01 11:36:16;;;;;;;6.18;1.30;;;;;;;24.93;41.25;99843.39;128013;1098;24566;-77
2021/07/01 11:38:48;;;;;;;2.48;0.90;;;;;;;24.93;40.98;99843.39;127994;1098;22414;-77
2021/07/01 11:41:18;;;;;;;2.48;1.23;;;;;;;24.87;40.92;99839.89;127999;1098;22420;-77
2021/07/01 11:43:49;;;;;;;4.20;1.00;;;;;;;24.91;41.16;99837.45;127997;1098;22421;-77
2021/07/01 11:46:20;;;;;;;3.37;1.20;;;;;;;24.98;40.99;99835.26;128036;1098;22397;-76
2021/07/01 11:48:55;;;;;;;8.88;1.40;;;;;;;25.10;41.34;99846.57;128051;1098;23360;-77
2021/07/01 11:51:26;;;;;;;2.20;0.88;;;;;;;25.26;41.53;99831.94;128034;1098;22468;-77
2021/07/01 11:53:56;;;;;;;11.10;9.88;;;;;;;25.40;40.92;99831.34;128042;1098;22393;-76
2021/07/01 11:56:27;;;;;;;3.53;2.00;;;;;;;25.46;41.12;99830.20;127995;1098;22795;-76
2021/07/01 11:58:56;;;;;;;1.55;1.00;;;;;;;25.60;40.74;99842.03;127983;1098;22375;-76
2021/07/01 12:01:26;;;;;;;3.80;1.20;;;;;;;25.75;40.78;99844.63;127988;1098;22404;-75
2021/07/01 12:03:56;;;;;;;20.88;2.58;;;;;;;25.93;40.37;99839.69;128045;1098;22611;-78
2021/07/01 12:06:57;;;;;;;4.33;2.03;;;;;;;25.97;40.18;99838.83;127999;1098;22805;-76
2021/07/01 12:09:30;;;;;;;4.70;1.50;;;;;;;25.90;40.15;99846.47;127708;1101;22623;-78
2021/07/01 12:12:27;;;;;;;4.70;1.58;;;;;;;25.92;40.08;99843.46;127736;1100;22411;-77
2021/07/01 12:15:09;;;;;;;2.88;1.20;;;;;;;25.92;40.00;99838.86;127469;1104;22428;-76
2021/07/01 12:17:54;;;;;;;1.28;0.73;;;;;;;25.83;39.48;99845.17;127080;1104;23392;-77
2021/07/01 12:20:29;;;;;;;6.13;1.65;;;;;;;25.70;40.15;99847.38;127572;1105;25098;-76
2021/07/01 12:23:20;;;;;;;1.57;0.90;;;;;;;25.69;39.66;99848.48;127073;1104;22525;-77
2021/07/01 12:25:59;;;;;;;1.68;0.90;;;;;;;25.65;39.61;99841.98;127119;1105;24253;-77
2021/07/01 12:28:29;;;;;;;3.98;1.00;;;;;;;25.63;39.47;99846.88;127030;1104;24246;-78